Time;durP1;ratioP1;P1;durP2;ratioP2;P2;SDS_P1;SDS_P2;PMS_P1;PMS_P2;Temp;Humidity;BMP_temperature;BMP_pressure;BME280_temperature;BME280_humidity;BME280_pressure;Samples;Min_cycle;Max_cycle;Signal;HPM_P1;HPM_P2
2022/02/27 00:02:13;;;;;;;18.93;16.07;;;;;;;;;;5065342;28;24415;-52
2022/02/27 00:04:38;;;;;;;17.92;14.55;;;;;;;;;;5065576;28;24498;-51
2022/02/27 00:07:04;;;;;;;19.10;15.93;;;;;;;;;;5069925;28;24419;-50
2022/02/27 00:09:29;;;;;;;21.83;15.70;;;;;;;;;;5068064;28;24765;-50
2022/02/27 00:11:55;;;;;;;18.13;15.10;;;;;;;;;;5063150;28;24438;-51
2022/02/27 00:14:20;;;;;;;20.30;15.57;;;;;;;;;;5065249;28;25026;-51
2022/02/27 00:16:45;;;;;;;19.02;14.60;;;;;;;;;;5064824;28;24433;-51
2022/02/27 00:19:10;;;;;;;19.30;14.48;;;;;;;;;;5064448;28;25010;-51
2022/02/27 00:21:35;;;;;;;18.00;14.73;;;;;;;;;;5065359;28;24411;-51
2022/02/27 00:24:01;;;;;;;17.73;14.20;;;;;;;;;;5065023;28;24428;-52
2022/02/27 00:26:26;;;;;;;18.38;14.18;;;;;;;;;;5065273;28;24452;-51
2022/02/27 00:28:51;;;;;;;15.05;13.43;;;;;;;;;;5064103;28;24442;-52
2022/02/27 00:31:16;;;;;;;17.35;13.50;;;;;;;;;;5064406;28;24981;-51
2022/02/27 00:33:41;;;;;;;17.43;14.37;;;;;;;;;;5065186;28;24464;-51
2022/02/27 00:36:06;;;;;;;18.00;13.53;;;;;;;;;;5071017;28;24433;-51
2022/02/27 00:38:32;;;;;;;16.57;13.20;;;;;;;;;;5065770;28;24481;-51
2022/02/27 00:40:57;;;;;;;16.43;13.70;;;;;;;;;;5067919;28;24431;-50
2022/02/27 00:43:23;;;;;;;20.70;15.40;;;;;;;;;;5069774;28;25016;-51
2022/02/27 00:45:49;;;;;;;21.80;14.88;;;;;;;;;;5071428;28;25006;-51
2022/02/27 00:48:14;;;;;;;17.13;14.03;;;;;;;;;;5074672;28;24426;-53
2022/02/27 00:50:39;;;;;;;21.10;15.88;;;;;;;;;;5063982;28;24936;-51
2022/02/27 00:53:06;;;;;;;19.52;14.40;;;;;;;;;;5072074;28;25004;-51
2022/02/27 00:55:31;;;;;;;18.95;14.98;;;;;;;;;;5068487;28;24432;-51
2022/02/27 00:57:56;;;;;;;19.38;15.00;;;;;;;;;;5068004;28;24937;-52
2022/02/27 01:00:22;;;;;;;23.70;15.40;;;;;;;;;;5068082;28;24950;-51
2022/02/27 01:02:47;;;;;;;20.30;14.40;;;;;;;;;;5071315;28;24410;-51
2022/02/27 01:05:12;;;;;;;18.98;14.52;;;;;;;;;;5067687;28;24456;-51
2022/02/27 01:07:37;;;;;;;18.93;13.70;;;;;;;;;;5068331;28;24419;-50
2022/02/27 01:10:03;;;;;;;15.15;12.25;;;;;;;;;;5067927;28;24506;-50
2022/02/27 01:12:28;;;;;;;18.35;14.35;;;;;;;;;;5065612;28;24804;-51
2022/02/27 01:14:53;;;;;;;15.90;13.20;;;;;;;;;;5068004;28;24492;-51
2022/02/27 01:17:18;;;;;;;15.47;12.77;;;;;;;;;;5065984;28;25122;-52
2022/02/27 01:19:43;;;;;;;16.93;12.80;;;;;;;;;;5067113;28;24662;-51
2022/02/27 01:22:09;;;;;;;17.90;13.10;;;;;;;;;;5067289;28;24781;-52
2022/02/27 01:24:34;;;;;;;19.30;14.40;;;;;;;;;;5067839;28;25039;-51
2022/02/27 01:26:59;;;;;;;18.98;13.35;;;;;;;;;;5066479;28;24572;-51
2022/02/27 01:29:24;;;;;;;17.03;13.20;;;;;;;;;;5068127;28;24430;-51
2022/02/27 01:31:49;;;;;;;18.57;14.00;;;;;;;;;;5065794;28;24430;-51
2022/02/27 01:34:15;;;;;;;16.80;13.50;;;;;;;;;;5067128;28;24517;-51
2022/02/27 01:36:40;;;;;;;19.67;14.57;;;;;;;;;;5057758;28;24422;-51
2022/02/27 01:39:05;;;;;;;20.30;14.10;;;;;;;;;;5065907;28;24595;-51
2022/02/27 01:41:31;;;;;;;19.20;13.90;;;;;;;;;;5065299;28;24934;-51
2022/02/27 01:43:56;;;;;;;16.70;14.00;;;;;;;;;;5065700;28;24425;-52
2022/02/27 01:46:21;;;;;;;19.73;13.83;;;;;;;;;;5072656;28;24590;-52
2022/02/27 01:48:46;;;;;;;18.13;13.90;;;;;;;;;;5063997;28;24514;-51
2022/02/27 01:51:11;;;;;;;16.43;14.27;;;;;;;;;;5061889;28;24429;-51
2022/02/27 01:53:37;;;;;;;17.97;13.70;;;;;;;;;;5062245;28;24808;-51
2022/02/27 01:56:03;;;;;;;17.00;13.80;;;;;;;;;;5071291;28;24454;-51
2022/02/27 01:58:29;;;;;;;18.58;13.88;;;;;;;;;;5064972;28;24967;-51
2022/02/27 02:00:56;;;;;;;17.02;13.70;;;;;;;;;;5070850;28;24410;-51
2022/02/27 02:03:21;;;;;;;16.42;13.73;;;;;;;;;;5066767;28;24438;-51
2022/02/27 02:05:46;;;;;;;19.50;14.27;;;;;;;;;;5059880;28;24469;-51
2022/02/27 02:08:11;;;;;;;17.52;13.30;;;;;;;;;;5066475;28;24409;-51
2022/02/27 02:10:37;;;;;;;17.58;13.95;;;;;;;;;;5063688;28;24510;-51
2022/02/27 02:13:02;;;;;;;21.40;14.87;;;;;;;;;;5082053;28;24418;-51
2022/02/27 02:15:27;;;;;;;22.47;14.40;;;;;;;;;;5065146;28;25241;-51
2022/02/27 02:17:52;;;;;;;18.17;13.93;;;;;;;;;;5064927;28;24434;-50
2022/02/27 02:20:18;;;;;;;17.85;13.82;;;;;;;;;;5060379;28;24643;-50
2022/02/27 02:22:43;;;;;;;19.23;13.98;;;;;;;;;;5065380;28;24410;-51
2022/02/27 02:25:08;;;;;;;20.70;13.10;;;;;;;;;;5067017;28;24422;-51
2022/02/27 02:27:34;;;;;;;14.40;12.80;;;;;;;;;;5065241;28;24411;-51
2022/02/27 02:29:59;;;;;;;17.70;12.40;;;;;;;;;;5057333;28;24495;-51
2022/02/27 02:32:24;;;;;;;17.70;12.30;;;;;;;;;;5068363;28;24456;-50
2022/02/27 02:34:49;;;;;;;15.57;11.70;;;;;;;;;;5058281;28;24454;-51
2022/02/27 02:37:15;;;;;;;17.73;12.10;;;;;;;;;;5064239;28;24423;-51
2022/02/27 02:39:40;;;;;;;17.37;12.50;;;;;;;;;;5063677;28;24431;-50
2022/02/27 02:42:05;;;;;;;16.30;11.93;;;;;;;;;;5067477;28;24410;-50
2022/02/27 02:44:30;;;;;;;17.33;12.30;;;;;;;;;;5072522;28;24438;-50
2022/02/27 02:46:56;;;;;;;16.83;11.97;;;;;;;;;;5065611;28;24580;-51
2022/02/27 02:49:21;;;;;;;17.23;12.10;;;;;;;;;;5062310;28;24552;-50
2022/02/27 02:51:46;;;;;;;15.03;12.67;;;;;;;;;;5064653;28;24531;-51
2022/02/27 02:54:11;;;;;;;16.83;13.95;;;;;;;;;;5054019;28;24418;-51
2022/02/27 02:56:37;;;;;;;18.67;15.63;;;;;;;;;;5064028;28;25211;-50
2022/02/27 02:59:03;;;;;;;16.77;14.20;;;;;;;;;;5063224;28;24451;-51
2022/02/27 03:01:28;;;;;;;18.10;14.00;;;;;;;;;;5061569;28;24433;-50
2022/02/27 03:03:54;;;;;;;17.73;15.03;;;;;;;;;;5058291;28;24976;-50
2022/02/27 03:06:19;;;;;;;18.60;15.50;;;;;;;;;;5064128;28;24770;-50
2022/02/27 03:08:46;;;;;;;18.50;14.93;;;;;;;;;;5066619;28;24414;-50
2022/02/27 03:11:11;;;;;;;18.05;14.70;;;;;;;;;;5063199;28;24434;-51
2022/02/27 03:13:37;;;;;;;17.97;14.57;;;;;;;;;;5063758;28;24399;-51
2022/02/27 03:16:02;;;;;;;15.68;13.95;;;;;;;;;;5062800;28;24524;-51
2022/02/27 03:18:28;;;;;;;15.85;13.88;;;;;;;;;;5063197;28;24421;-51
2022/02/27 03:20:53;;;;;;;17.30;14.57;;;;;;;;;;5064371;28;24769;-51
2022/02/27 03:23:18;;;;;;;19.83;14.97;;;;;;;;;;5062957;28;24522;-51
2022/02/27 03:25:43;;;;;;;19.50;15.07;;;;;;;;;;5070260;28;24410;-51
2022/02/27 03:28:09;;;;;;;16.00;13.98;;;;;;;;;;5065424;28;24402;-51
2022/02/27 03:30:36;;;;;;;18.47;13.73;;;;;;;;;;5065691;28;24399;-51
2022/02/27 03:33:02;;;;;;;15.73;13.80;;;;;;;;;;5061431;28;24399;-51
2022/02/27 03:35:27;;;;;;;15.35;13.52;;;;;;;;;;5067338;28;24545;-52
2022/02/27 03:37:52;;;;;;;16.48;13.02;;;;;;;;;;5066453;28;24473;-51
2022/02/27 03:40:17;;;;;;;14.90;12.75;;;;;;;;;;5068074;28;24492;-52
2022/02/27 03:42:43;;;;;;;17.33;12.83;;;;;;;;;;5071035;28;24975;-51
2022/02/27 03:45:08;;;;;;;17.00;13.20;;;;;;;;;;5070961;28;24446;-52
2022/02/27 03:47:33;;;;;;;15.57;12.60;;;;;;;;;;5067127;28;24426;-52
2022/02/27 03:49:58;;;;;;;15.07;13.20;;;;;;;;;;5066125;28;24893;-52
2022/02/27 03:52:23;;;;;;;17.30;13.10;;;;;;;;;;5065364;28;24480;-51
2022/02/27 03:54:49;;;;;;;16.02;13.70;;;;;;;;;;5065079;28;24413;-51
2022/02/27 03:57:14;;;;;;;17.27;13.60;;;;;;;;;;5064838;28;24826;-56
2022/02/27 03:59:39;;;;;;;18.48;13.80;;;;;;;;;;5065527;28;24395;-51
2022/02/27 04:02:04;;;;;;;17.70;13.68;;;;;;;;;;5065041;28;24418;-52
2022/02/27 04:04:30;;;;;;;16.13;13.50;;;;;;;;;;5064899;28;24410;-52
2022/02/27 04:06:55;;;;;;;19.23;14.10;;;;;;;;;;5065837;28;24418;-51
2022/02/27 04:09:20;;;;;;;17.43;13.50;;;;;;;;;;5065252;28;24419;-51
2022/02/27 04:11:45;;;;;;;18.00;14.15;;;;;;;;;;5069056;28;25022;-52
2022/02/27 04:14:10;;;;;;;16.20;14.27;;;;;;;;;;5070988;28;24406;-52
2022/02/27 04:16:35;;;;;;;16.20;13.80;;;;;;;;;;5074381;28;24859;-52
2022/02/27 04:19:00;;;;;;;15.45;13.85;;;;;;;;;;5069134;28;25272;-51
2022/02/27 04:21:26;;;;;;;17.73;14.97;;;;;;;;;;5069198;28;24441;-51
2022/02/27 04:23:52;;;;;;;16.75;14.95;;;;;;;;;;5068654;28;24437;-51
2022/02/27 04:26:17;;;;;;;20.38;15.40;;;;;;;;;;5069538;28;24418;-51
2022/02/27 04:28:42;;;;;;;21.52;15.77;;;;;;;;;;5068621;28;24415;-52
2022/02/27 04:31:07;;;;;;;17.98;15.35;;;;;;;;;;5068126;28;25158;-52
2022/02/27 04:33:32;;;;;;;20.40;14.73;;;;;;;;;;5068488;28;24402;-51
2022/02/27 04:35:57;;;;;;;20.20;14.90;;;;;;;;;;5068651;28;25338;-51
2022/02/27 04:38:22;;;;;;;17.98;14.57;;;;;;;;;;5066090;28;24411;-52
2022/02/27 04:40:48;;;;;;;19.92;15.02;;;;;;;;;;5073439;28;24508;-53
2022/02/27 04:43:13;;;;;;;20.67;15.33;;;;;;;;;;5067067;28;25004;-52
2022/02/27 04:45:38;;;;;;;19.23;16.05;;;;;;;;;;5066555;28;24414;-52
2022/02/27 04:48:04;;;;;;;20.93;15.93;;;;;;;;;;5072383;28;24472;-51
2022/02/27 04:50:29;;;;;;;20.83;16.10;;;;;;;;;;5070027;28;24484;-51
2022/02/27 04:52:54;;;;;;;20.13;16.00;;;;;;;;;;5068882;28;24773;-51
2022/02/27 04:55:19;;;;;;;20.90;16.63;;;;;;;;;;5070407;28;24479;-52
2022/02/27 04:57:45;;;;;;;18.73;16.47;;;;;;;;;;5068251;28;24588;-52
2022/02/27 05:00:10;;;;;;;17.93;15.80;;;;;;;;;;5067952;28;24960;-52
2022/02/27 05:02:35;;;;;;;20.53;16.53;;;;;;;;;;5081970;28;24518;-51
2022/02/27 05:05:00;;;;;;;21.60;16.07;;;;;;;;;;5068390;28;24415;-52
2022/02/27 05:07:26;;;;;;;19.23;16.60;;;;;;;;;;5067954;28;24429;-51
2022/02/27 05:09:51;;;;;;;22.10;15.37;;;;;;;;;;5068502;28;24421;-51
2022/02/27 05:12:16;;;;;;;17.40;15.38;;;;;;;;;;5075910;28;24819;-52
2022/02/27 05:14:41;;;;;;;19.00;15.20;;;;;;;;;;5070577;28;24425;-52
2022/02/27 05:17:06;;;;;;;19.03;16.60;;;;;;;;;;5067210;28;24423;-51
2022/02/27 05:19:31;;;;;;;23.00;17.70;;;;;;;;;;5067874;28;24781;-51
2022/02/27 05:21:57;;;;;;;17.90;14.77;;;;;;;;;;5063522;28;24430;-51
2022/02/27 05:24:22;;;;;;;16.77;14.60;;;;;;;;;;5068578;28;24418;-51
2022/02/27 05:26:47;;;;;;;20.42;15.02;;;;;;;;;;5067152;28;24423;-52
2022/02/27 05:29:12;;;;;;;18.70;15.23;;;;;;;;;;5067160;28;24967;-51
2022/02/27 05:31:38;;;;;;;17.85;14.50;;;;;;;;;;5067511;28;24498;-51
2022/02/27 05:34:03;;;;;;;23.08;15.70;;;;;;;;;;5071102;28;24419;-52
2022/02/27 05:36:28;;;;;;;17.43;15.00;;;;;;;;;;5067503;28;24465;-50
2022/02/27 05:38:53;;;;;;;18.03;14.90;;;;;;;;;;5063313;28;24419;-52
2022/02/27 05:41:19;;;;;;;18.75;14.55;;;;;;;;;;5064538;28;24445;-52
2022/02/27 05:43:44;;;;;;;15.27;13.60;;;;;;;;;;5067727;28;24413;-52
2022/02/27 05:46:09;;;;;;;16.20;13.63;;;;;;;;;;5066958;28;24433;-51
2022/02/27 05:48:34;;;;;;;18.73;14.37;;;;;;;;;;5068396;28;24415;-51
2022/02/27 05:50:59;;;;;;;17.00;14.43;;;;;;;;;;5066409;28;25007;-52
2022/02/27 05:53:24;;;;;;;14.85;13.00;;;;;;;;;;5066733;28;24413;-51
2022/02/27 05:55:56;;;;;;;16.70;13.40;;;;;;;;;;5069841;28;24454;-51
2022/02/27 05:58:21;;;;;;;17.77;13.87;;;;;;;;;;5065646;28;24765;-51
2022/02/27 06:00:46;;;;;;;17.95;14.63;;;;;;;;;;5067023;28;25041;-51
2022/02/27 06:03:11;;;;;;;17.45;14.73;;;;;;;;;;5067371;28;24886;-51
2022/02/27 06:05:37;;;;;;;17.17;13.97;;;;;;;;;;5066540;28;24411;-52
2022/02/27 06:08:02;;;;;;;19.07;14.10;;;;;;;;;;5066197;28;24419;-52
2022/02/27 06:10:27;;;;;;;15.73;13.97;;;;;;;;;;5063982;28;24479;-51
2022/02/27 06:12:52;;;;;;;16.58;14.30;;;;;;;;;;5063886;28;24426;-51
2022/02/27 06:15:17;;;;;;;19.15;14.82;;;;;;;;;;5072077;28;24523;-51
2022/02/27 06:17:42;;;;;;;19.00;13.80;;;;;;;;;;5070074;28;24437;-52
2022/02/27 06:20:08;;;;;;;16.90;13.73;;;;;;;;;;5069614;28;24469;-51
2022/02/27 06:22:37;;;;;;;15.45;13.85;;;;;;;;;;5077327;28;24986;-51
2022/02/27 06:25:02;;;;;;;18.20;15.20;;;;;;;;;;5063343;28;24454;-51
2022/02/27 06:27:27;;;;;;;18.20;14.83;;;;;;;;;;5064532;28;24457;-50
2022/02/27 06:29:52;;;;;;;17.30;14.33;;;;;;;;;;5065670;28;24430;-51
2022/02/27 06:32:17;;;;;;;17.63;14.75;;;;;;;;;;5062301;28;24450;-51
2022/02/27 06:34:43;;;;;;;16.40;14.47;;;;;;;;;;5064492;28;24442;-51
2022/02/27 06:37:08;;;;;;;15.88;14.02;;;;;;;;;;5070868;28;24472;-55
2022/02/27 06:39:33;;;;;;;16.23;13.90;;;;;;;;;;5058796;28;24424;-51
2022/02/27 06:42:01;;;;;;;15.63;13.88;;;;;;;;;;5062059;28;24451;-52
2022/02/27 06:44:26;;;;;;;15.15;13.55;;;;;;;;;;5061726;28;24423;-52
2022/02/27 06:46:51;;;;;;;17.13;14.10;;;;;;;;;;5062999;28;24522;-51
2022/02/27 06:49:16;;;;;;;16.42;14.07;;;;;;;;;;5063840;28;24437;-51
2022/02/27 06:51:42;;;;;;;16.00;14.20;;;;;;;;;;5062952;28;24415;-52
2022/02/27 06:54:07;;;;;;;16.83;14.57;;;;;;;;;;5057927;28;24473;-49
2022/02/27 06:56:32;;;;;;;18.60;13.87;;;;;;;;;;5065779;28;24422;-50
2022/02/27 06:58:57;;;;;;;15.87;14.17;;;;;;;;;;5069365;28;24464;-51
2022/02/27 07:01:22;;;;;;;16.23;13.80;;;;;;;;;;5060416;28;24446;-50
2022/02/27 07:03:47;;;;;;;16.88;14.65;;;;;;;;;;5070350;28;24480;-52
2022/02/27 07:06:13;;;;;;;17.13;13.73;;;;;;;;;;5061487;28;24979;-52
2022/02/27 07:08:38;;;;;;;16.65;14.88;;;;;;;;;;5063235;28;25048;-52
2022/02/27 07:11:03;;;;;;;15.90;13.77;;;;;;;;;;5065807;28;25356;-51
2022/02/27 07:13:29;;;;;;;16.42;14.63;;;;;;;;;;5064593;28;24804;-52
2022/02/27 07:15:54;;;;;;;16.98;14.32;;;;;;;;;;5069825;28;24422;-50
2022/02/27 07:18:19;;;;;;;15.53;13.80;;;;;;;;;;5063356;28;24770;-51
2022/02/27 07:20:44;;;;;;;18.00;14.07;;;;;;;;;;5067491;28;24964;-50
2022/02/27 07:23:10;;;;;;;16.50;13.40;;;;;;;;;;5067236;28;24998;-50
2022/02/27 07:25:35;;;;;;;16.70;13.80;;;;;;;;;;5065555;28;24981;-51
2022/02/27 07:28:00;;;;;;;17.90;14.00;;;;;;;;;;5065442;28;24472;-51
2022/02/27 07:30:25;;;;;;;16.90;14.30;;;;;;;;;;5065484;28;24457;-50
2022/02/27 07:32:50;;;;;;;15.33;13.47;;;;;;;;;;5065739;28;24482;-50
2022/02/27 07:35:16;;;;;;;15.90;14.20;;;;;;;;;;5063332;28;24513;-50
2022/02/27 07:37:41;;;;;;;14.75;13.35;;;;;;;;;;5073270;28;24503;-51
2022/02/27 07:40:06;;;;;;;17.48;14.93;;;;;;;;;;5065135;28;25050;-50
2022/02/27 07:42:32;;;;;;;19.47;16.13;;;;;;;;;;5061680;28;24489;-52
2022/02/27 07:44:57;;;;;;;19.40;15.05;;;;;;;;;;5068492;28;24426;-51
2022/02/27 07:47:22;;;;;;;17.87;14.90;;;;;;;;;;5063616;28;24429;-51
2022/02/27 07:49:48;;;;;;;15.53;13.93;;;;;;;;;;5066244;28;24461;-50
2022/02/27 07:52:13;;;;;;;18.15;13.65;;;;;;;;;;5065519;28;24490;-51
2022/02/27 07:54:38;;;;;;;18.42;14.60;;;;;;;;;;5078862;28;24499;-51
2022/02/27 07:57:03;;;;;;;16.23;14.00;;;;;;;;;;5070293;28;25013;-52
2022/02/27 07:59:28;;;;;;;18.33;13.73;;;;;;;;;;5065990;28;24506;-51
2022/02/27 08:01:53;;;;;;;15.10;13.50;;;;;;;;;;5066277;28;24435;-51
2022/02/27 08:04:19;;;;;;;16.83;13.57;;;;;;;;;;5061467;28;24415;-51
2022/02/27 08:06:44;;;;;;;17.17;13.77;;;;;;;;;;5063550;28;24543;-51
2022/02/27 08:09:10;;;;;;;17.50;14.10;;;;;;;;;;5069073;28;24456;-49
2022/02/27 08:11:36;;;;;;;18.08;14.60;;;;;;;;;;5076108;28;24489;-50
2022/02/27 08:14:01;;;;;;;18.13;13.53;;;;;;;;;;5068135;28;24464;-50
2022/02/27 08:16:26;;;;;;;16.00;13.30;;;;;;;;;;5060381;28;25100;-50
2022/02/27 08:18:51;;;;;;;17.63;13.68;;;;;;;;;;5062228;28;24445;-52
2022/02/27 08:21:16;;;;;;;17.17;13.00;;;;;;;;;;5064848;28;24851;-51
2022/02/27 08:23:41;;;;;;;17.83;13.30;;;;;;;;;;5065662;28;24433;-51
2022/02/27 08:26:06;;;;;;;18.70;13.83;;;;;;;;;;5062826;28;24403;-51
2022/02/27 08:28:32;;;;;;;17.63;13.80;;;;;;;;;;5063771;28;24521;-51
2022/02/27 08:30:58;;;;;;;17.53;13.60;;;;;;;;;;5061584;28;24471;-50
2022/02/27 08:33:23;;;;;;;17.80;13.50;;;;;;;;;;5064222;28;24841;-50
2022/02/27 08:35:48;;;;;;;17.08;13.35;;;;;;;;;;5062794;28;24455;-51
2022/02/27 08:38:13;;;;;;;15.87;13.23;;;;;;;;;;5064320;28;24429;-52
2022/02/27 08:40:39;;;;;;;16.77;13.37;;;;;;;;;;5054950;28;24542;-51
2022/02/27 08:43:04;;;;;;;17.20;13.30;;;;;;;;;;5062663;28;24411;-51
2022/02/27 08:45:29;;;;;;;16.30;12.80;;;;;;;;;;5063085;28;24437;-50
2022/02/27 08:47:54;;;;;;;17.70;12.60;;;;;;;;;;5062987;28;24405;-51
2022/02/27 08:50:20;;;;;;;17.08;13.00;;;;;;;;;;5062349;28;24476;-51
2022/02/27 08:52:45;;;;;;;14.70;12.63;;;;;;;;;;5064111;28;24387;-52
2022/02/27 08:55:12;;;;;;;18.63;12.50;;;;;;;;;;5064630;28;24383;-51
2022/02/27 08:57:38;;;;;;;16.77;13.00;;;;;;;;;;5067945;28;24407;-51
2022/02/27 09:00:04;;;;;;;14.57;12.50;;;;;;;;;;5067778;28;24472;-50
2022/02/27 09:02:29;;;;;;;13.50;11.52;;;;;;;;;;5066535;28;24406;-51
2022/02/27 09:04:54;;;;;;;17.05;12.50;;;;;;;;;;5068288;28;24394;-51
2022/02/27 09:07:19;;;;;;;13.57;11.32;;;;;;;;;;5068001;28;24483;-51
2022/02/27 09:09:45;;;;;;;15.80;11.70;;;;;;;;;;5065849;28;24773;-52
2022/02/27 09:12:11;;;;;;;14.20;11.25;;;;;;;;;;5066111;28;24391;-51
2022/02/27 09:14:38;;;;;;;13.52;10.60;;;;;;;;;;5067955;28;24406;-52
2022/02/27 09:17:04;;;;;;;12.63;10.50;;;;;;;;;;5067786;28;24415;-51
2022/02/27 09:19:30;;;;;;;13.10;9.63;;;;;;;;;;5067924;28;24796;-51
2022/02/27 09:21:55;;;;;;;14.23;10.10;;;;;;;;;;5065635;28;24969;-51
2022/02/27 09:24:20;;;;;;;13.63;10.20;;;;;;;;;;5068070;28;25001;-51
2022/02/27 09:26:45;;;;;;;12.23;9.30;;;;;;;;;;5067509;28;24430;-51
2022/02/27 09:29:11;;;;;;;10.50;9.40;;;;;;;;;;5067900;28;24394;-50
2022/02/27 09:31:36;;;;;;;11.65;9.45;;;;;;;;;;5067350;28;24418;-51
2022/02/27 09:34:01;;;;;;;11.75;9.27;;;;;;;;;;5066439;28;24463;-50
2022/02/27 09:36:26;;;;;;;10.70;8.70;;;;;;;;;;5067357;28;24966;-50
2022/02/27 09:38:52;;;;;;;9.73;8.00;;;;;;;;;;5067409;28;24541;-51
2022/02/27 09:41:17;;;;;;;11.00;8.80;;;;;;;;;;5066874;28;24431;-51
2022/02/27 09:43:43;;;;;;;10.15;9.10;;;;;;;;;;5065455;28;24822;-51
2022/02/27 09:46:08;;;;;;;9.00;7.90;;;;;;;;;;5067594;28;24395;-51
2022/02/27 09:48:33;;;;;;;8.50;7.30;;;;;;;;;;5067508;28;24953;-51
2022/02/27 09:50:58;;;;;;;12.73;8.70;;;;;;;;;;5067227;28;24398;-51
2022/02/27 09:53:23;;;;;;;8.90;7.40;;;;;;;;;;5063824;28;24899;-51
2022/02/27 09:55:49;;;;;;;8.00;6.63;;;;;;;;;;5064838;28;24465;-52
2022/02/27 09:58:14;;;;;;;9.13;6.90;;;;;;;;;;5049777;28;24418;-51
2022/02/27 10:00:39;;;;;;;9.07;7.30;;;;;;;;;;5066856;28;24503;-50
2022/02/27 10:03:06;;;;;;;6.30;5.70;;;;;;;;;;5067431;28;24398;-51
2022/02/27 10:05:32;;;;;;;7.03;6.03;;;;;;;;;;5067578;28;24422;-51
2022/02/27 10:07:58;;;;;;;6.88;5.60;;;;;;;;;;5067099;28;24928;-51
2022/02/27 10:10:23;;;;;;;5.70;4.80;;;;;;;;;;5067053;28;24415;-51
2022/02/27 10:12:48;;;;;;;6.63;5.33;;;;;;;;;;5066754;28;24506;-50
2022/02/27 10:15:15;;;;;;;5.55;5.05;;;;;;;;;;5067135;28;24848;-50
2022/02/27 10:17:41;;;;;;;5.60;4.95;;;;;;;;;;5067308;28;24441;-51
2022/02/27 10:20:08;;;;;;;5.57;4.70;;;;;;;;;;5067246;28;24932;-51
2022/02/27 10:22:34;;;;;;;5.80;5.10;;;;;;;;;;5060723;28;24423;-50
2022/02/27 10:25:00;;;;;;;5.50;5.00;;;;;;;;;;5063913;28;24434;-51
2022/02/27 10:27:38;;;;;;;4.90;4.40;;;;;;;;;;5067194;28;24445;-51
2022/02/27 10:30:11;;;;;;;5.20;4.70;;;;;;;;;;5066673;28;24387;-50
2022/02/27 10:32:36;;;;;;;5.20;4.70;;;;;;;;;;5066521;28;24952;-50
2022/02/27 10:35:01;;;;;;;5.30;4.80;;;;;;;;;;5066138;28;24448;-50
2022/02/27 10:37:27;;;;;;;5.80;5.30;;;;;;;;;;5066744;28;25151;-50
2022/02/27 10:39:52;;;;;;;5.37;4.80;;;;;;;;;;5066360;28;24454;-50
2022/02/27 10:42:17;;;;;;;5.70;5.20;;;;;;;;;;5048732;28;24980;-50
2022/02/27 10:44:48;;;;;;;5.57;5.07;;;;;;;;;;5054216;28;24502;-50
2022/02/27 10:47:17;;;;;;;5.40;4.90;;;;;;;;;;5064064;28;24414;-51
2022/02/27 10:49:43;;;;;;;5.40;5.00;;;;;;;;;;5066101;28;24510;-50
2022/02/27 10:52:19;;;;;;;5.63;5.10;;;;;;;;;;5064503;28;24478;-50
2022/02/27 10:54:46;;;;;;;5.38;4.88;;;;;;;;;;5066350;28;24489;-50
2022/02/27 10:57:25;;;;;;;6.45;5.13;;;;;;;;;;5064317;28;24422;-50
2022/02/27 10:59:50;;;;;;;4.93;4.50;;;;;;;;;;5062754;28;24417;-50
2022/02/27 11:02:16;;;;;;;5.00;4.60;;;;;;;;;;5064613;28;24428;-50
2022/02/27 11:04:41;;;;;;;4.90;4.50;;;;;;;;;;5065667;28;25147;-50
2022/02/27 11:07:06;;;;;;;4.70;4.30;;;;;;;;;;5066003;28;24405;-50
2022/02/27 11:09:32;;;;;;;5.00;4.50;;;;;;;;;;5065200;28;24501;-51
2022/02/27 11:11:57;;;;;;;5.17;4.67;;;;;;;;;;5064103;28;24536;-51
2022/02/27 11:14:23;;;;;;;5.37;4.77;;;;;;;;;;5065962;28;24390;-50
2022/02/27 11:16:50;;;;;;;4.95;4.55;;;;;;;;;;5065782;28;25299;-50
2022/02/27 11:19:16;;;;;;;4.50;4.10;;;;;;;;;;5065183;28;24980;-51
2022/02/27 11:21:42;;;;;;;4.50;4.10;;;;;;;;;;5063849;28;24390;-55
2022/02/27 11:24:08;;;;;;;4.30;3.90;;;;;;;;;;5064034;28;24403;-50
2022/02/27 11:26:33;;;;;;;4.63;4.22;;;;;;;;;;5065861;28;24397;-50
2022/02/27 11:28:58;;;;;;;4.40;4.00;;;;;;;;;;5065838;28;24399;-50
2022/02/27 11:31:24;;;;;;;4.57;4.17;;;;;;;;;;5065905;28;24427;-50
2022/02/27 11:33:49;;;;;;;4.73;4.33;;;;;;;;;;5065308;28;24506;-51
2022/02/27 11:36:21;;;;;;;4.90;4.50;;;;;;;;;;5065700;28;24777;-51
2022/02/27 11:38:56;;;;;;;4.50;4.10;;;;;;;;;;5065694;28;24801;-50
2022/02/27 11:41:22;;;;;;;4.57;4.18;;;;;;;;;;5065901;28;24451;-51
2022/02/27 11:43:52;;;;;;;4.93;4.53;;;;;;;;;;5065588;28;24468;-51
2022/02/27 11:46:38;;;;;;;4.35;3.95;;;;;;;;;;5065287;28;24552;-51
2022/02/27 11:49:03;;;;;;;4.00;3.70;;;;;;;;;;5062890;28;24804;-52
2022/02/27 11:51:37;;;;;;;4.18;3.88;;;;;;;;;;5065434;28;24401;-50
2022/02/27 11:54:06;;;;;;;4.40;4.00;;;;;;;;;;5065113;28;24415;-50
2022/02/27 11:56:31;;;;;;;4.60;4.20;;;;;;;;;;5065174;28;24972;-50
2022/02/27 11:58:56;;;;;;;3.80;3.50;;;;;;;;;;5065214;28;24398;-50
2022/02/27 12:01:40;;;;;;;4.22;3.92;;;;;;;;;;5065343;28;24764;-49
2022/02/27 12:04:20;;;;;;;3.72;3.47;;;;;;;;;;5063500;28;24391;-50
2022/02/27 12:07:05;;;;;;;4.60;4.15;;;;;;;;;;5065533;28;24761;-51
2022/02/27 12:09:50;;;;;;;4.78;4.40;;;;;;;;;;5065159;28;24745;-51
2022/02/27 12:12:52;;;;;;;4.55;4.15;;;;;;;;;;5065029;28;24472;-52
2022/02/27 12:15:17;;;;;;;4.07;3.78;;;;;;;;;;5044685;28;25018;-52
2022/02/27 12:17:51;;;;;;;4.47;4.18;;;;;;;;;;5073256;28;24824;-52
2022/02/27 12:20:34;;;;;;;4.30;3.90;;;;;;;;;;5077982;28;24975;-51
2022/02/27 12:23:00;;;;;;;4.30;3.90;;;;;;;;;;5063479;28;24931;-52
2022/02/27 12:25:43;;;;;;;4.73;4.10;;;;;;;;;;5059463;28;24465;-52
2022/02/27 12:28:08;;;;;;;4.50;4.20;;;;;;;;;;5063160;28;24972;-49
2022/02/27 12:30:34;;;;;;;4.43;3.70;;;;;;;;;;5077292;28;24426;-49
2022/02/27 12:33:07;;;;;;;4.47;4.07;;;;;;;;;;5068425;28;24420;-50
2022/02/27 12:35:39;;;;;;;3.90;3.60;;;;;;;;;;5072039;28;24411;-49
2022/02/27 12:38:05;;;;;;;4.43;4.07;;;;;;;;;;5070091;28;24477;-50
2022/02/27 12:40:31;;;;;;;4.75;3.95;;;;;;;;;;5074590;28;24430;-51
2022/02/27 12:43:04;;;;;;;4.45;4.05;;;;;;;;;;5065558;28;24413;-50
2022/02/27 12:45:30;;;;;;;4.18;3.80;;;;;;;;;;5064656;28;24501;-50
2022/02/27 12:48:11;;;;;;;4.38;4.07;;;;;;;;;;5060901;28;24415;-57
2022/02/27 12:50:43;;;;;;;6.40;5.88;;;;;;;;;;5068846;28;24415;-50
2022/02/27 12:53:09;;;;;;;7.20;6.60;;;;;;;;;;5072971;28;24430;-50
2022/02/27 12:55:34;;;;;;;7.60;6.90;;;;;;;;;;5068496;28;24441;-50
2022/02/27 12:58:02;;;;;;;7.50;6.80;;;;;;;;;;5068576;28;25042;-50
2022/02/27 13:00:28;;;;;;;7.10;6.40;;;;;;;;;;5069044;28;24851;-50
2022/02/27 13:02:55;;;;;;;6.00;5.50;;;;;;;;;;5067001;28;25098;-50
2022/02/27 13:05:20;;;;;;;5.90;5.40;;;;;;;;;;5071242;28;24410;-51
2022/02/27 13:07:45;;;;;;;6.05;5.45;;;;;;;;;;5068089;28;24430;-51
2022/02/27 13:10:14;;;;;;;8.20;6.90;;;;;;;;;;5071656;28;24796;-49
2022/02/27 13:12:40;;;;;;;7.80;7.10;;;;;;;;;;5074373;28;24495;-49
2022/02/27 13:15:05;;;;;;;8.10;7.30;;;;;;;;;;5080640;28;24508;-50
2022/02/27 13:17:33;;;;;;;9.55;8.40;;;;;;;;;;5066202;28;24422;-49
2022/02/27 13:20:02;;;;;;;8.30;7.50;;;;;;;;;;5057733;28;24496;-50
2022/02/27 13:22:28;;;;;;;8.07;7.27;;;;;;;;;;5078215;28;25347;-50
2022/02/27 13:24:55;;;;;;;7.50;6.73;;;;;;;;;;5066167;28;24558;-49
2022/02/27 13:27:25;;;;;;;7.97;7.00;;;;;;;;;;5065093;28;24856;-50
2022/02/27 13:29:55;;;;;;;7.70;6.90;;;;;;;;;;5067888;28;24411;-51
2022/02/27 13:32:21;;;;;;;7.50;6.80;;;;;;;;;;5067295;28;24417;-50
2022/02/27 13:34:46;;;;;;;7.80;7.10;;;;;;;;;;5067657;28;24670;-51
2022/02/27 13:37:11;;;;;;;6.93;6.23;;;;;;;;;;5066493;28;24596;-50
2022/02/27 13:39:37;;;;;;;7.37;6.60;;;;;;;;;;5064982;28;24411;-51
2022/02/27 13:42:03;;;;;;;6.80;5.90;;;;;;;;;;5063912;28;25086;-50
2022/02/27 13:44:28;;;;;;;7.03;6.33;;;;;;;;;;5065265;28;24955;-51
2022/02/27 13:46:53;;;;;;;7.57;6.77;;;;;;;;;;5064432;28;24506;-51
2022/02/27 13:49:21;;;;;;;7.80;7.00;;;;;;;;;;5067080;28;24411;-51
2022/02/27 13:51:46;;;;;;;8.63;7.80;;;;;;;;;;5066865;28;24445;-51
2022/02/27 13:54:22;;;;;;;7.43;6.72;;;;;;;;;;5067045;28;24446;-51
2022/02/27 13:57:07;;;;;;;8.10;7.30;;;;;;;;;;5067299;28;24807;-51
2022/02/27 13:59:40;;;;;;;8.30;7.50;;;;;;;;;;5064690;28;24491;-51
2022/02/27 14:02:05;;;;;;;8.20;7.40;;;;;;;;;;5066815;28;24820;-51
2022/02/27 14:04:30;;;;;;;8.93;7.63;;;;;;;;;;5067282;28;24397;-51
2022/02/27 14:06:56;;;;;;;7.85;7.05;;;;;;;;;;5066084;28;24471;-51
2022/02/27 14:09:21;;;;;;;7.78;6.90;;;;;;;;;;5066398;28;24417;-51
2022/02/27 14:11:46;;;;;;;7.43;6.73;;;;;;;;;;5067227;28;24425;-50
2022/02/27 14:14:11;;;;;;;8.10;7.30;;;;;;;;;;5067320;28;24982;-49
2022/02/27 14:16:38;;;;;;;8.57;7.77;;;;;;;;;;5066798;28;24867;-50
2022/02/27 14:19:10;;;;;;;9.15;8.20;;;;;;;;;;5066417;28;24460;-50
2022/02/27 14:21:39;;;;;;;8.70;7.80;;;;;;;;;;5066460;28;24416;-50